createdAt,value
2022-11-05T00:01:13.210Z,61.62
2022-11-05T00:03:57.940Z,62.44
2022-11-05T00:06:42.587Z,62.13
2022-11-05T00:09:27.455Z,62.17
2022-11-05T00:12:12.278Z,61.58
2022-11-05T00:14:56.906Z,61.23
2022-11-05T00:17:41.896Z,62.07
2022-11-05T00:20:26.672Z,62.74
2022-11-05T00:23:11.886Z,63.75
2022-11-05T00:25:56.606Z,63.56
2022-11-05T00:28:41.295Z,64.57
2022-11-05T00:31:26.160Z,63.94
2022-11-05T00:34:10.907Z,64.39
2022-11-05T00:36:55.756Z,64.10
2022-11-05T00:39:40.446Z,64.30
2022-11-05T00:42:25.101Z,65.26
2022-11-05T00:45:09.763Z,64.61
2022-11-05T00:47:54.530Z,65.77
2022-11-05T00:50:39.366Z,66.38
2022-11-05T00:53:24.061Z,66.09
2022-11-05T00:56:08.752Z,65.19
2022-11-05T00:58:53.395Z,65.19
2022-11-05T01:01:38.333Z,64.49
2022-11-05T01:04:23.540Z,65.13
2022-11-05T01:07:08.327Z,65.22
2022-11-05T01:09:53.082Z,64.71
2022-11-05T01:12:37.706Z,64.59
2022-11-05T01:15:22.517Z,64.40
2022-11-05T01:18:07.309Z,64.64
2022-11-05T01:20:52.014Z,64.29
2022-11-05T01:23:36.640Z,63.72
2022-11-05T01:26:21.475Z,63.51
2022-11-05T01:29:06.184Z,63.57
2022-11-05T01:31:51.072Z,62.57
2022-11-05T01:34:35.801Z,62.11
2022-11-05T01:37:20.643Z,61.49
2022-11-05T01:40:05.410Z,62.01
2022-11-05T01:42:50.198Z,61.19
2022-11-05T01:45:34.908Z,62.12
2022-11-05T01:48:19.643Z,61.48
2022-11-05T01:51:04.364Z,60.45
2022-11-05T01:53:49.217Z,60.13
2022-11-05T01:56:33.936Z,60.57
2022-11-05T01:59:18.833Z,61.01
2022-11-05T02:02:03.602Z,61.27
2022-11-05T02:04:48.811Z,59.96
2022-11-05T02:07:33.740Z,58.98
2022-11-05T02:10:18.373Z,59.34
2022-11-05T02:13:03.377Z,59.14
2022-11-05T02:15:48.070Z,59.95
2022-11-05T02:18:32.920Z,60.82
2022-11-05T02:21:17.673Z,61.49
2022-11-05T02:24:02.395Z,61.44
2022-11-05T02:26:47.369Z,62.49
2022-11-05T02:29:32.041Z,62.13
2022-11-05T02:32:17.002Z,61.23
2022-11-05T02:35:01.647Z,61.82
2022-11-05T02:37:46.469Z,60.12
2022-11-05T02:40:31.305Z,59.45
2022-11-05T02:43:16.455Z,58.19
2022-11-05T02:46:01.186Z,56.70
2022-11-05T02:48:46.008Z,56.64
2022-11-05T02:51:30.694Z,55.67
2022-11-05T02:54:15.371Z,54.63
2022-11-05T02:57:00.255Z,54.63
2022-11-05T02:59:44.875Z,54.03
2022-11-05T03:02:29.795Z,55.08
2022-11-05T03:05:16.246Z,53.60
2022-11-05T03:08:01.134Z,54.47
2022-11-05T03:10:45.755Z,56.16
2022-11-05T03:13:30.656Z,56.85
2022-11-05T03:16:15.421Z,58.73
2022-11-05T03:19:00.102Z,60.20
2022-11-05T03:21:44.802Z,60.71
2022-11-05T03:24:29.465Z,61.40
2022-11-05T03:27:14.228Z,60.97
2022-11-05T03:29:59.016Z,61.07
2022-11-05T03:32:43.864Z,62.80
2022-11-05T03:35:28.580Z,64.54
2022-11-05T03:38:13.296Z,63.44
2022-11-05T03:40:57.921Z,64.12
2022-11-05T03:43:42.657Z,63.34
2022-11-05T03:46:27.255Z,62.86
2022-11-05T03:49:12.050Z,63.20
2022-11-05T03:51:56.881Z,62.30
2022-11-05T03:54:41.507Z,62.82
2022-11-05T03:57:26.394Z,61.97
2022-11-05T04:00:11.014Z,62.15
2022-11-05T04:02:55.836Z,62.19
2022-11-05T04:05:40.787Z,61.79
2022-11-05T04:08:25.615Z,60.99
2022-11-05T04:11:10.279Z,60.69
2022-11-05T04:13:55.043Z,60.90
2022-11-05T04:16:39.720Z,60.30
2022-11-05T04:19:26.244Z,60.09
2022-11-05T04:22:11.262Z,59.56
2022-11-05T04:24:56.206Z,59.79
2022-11-05T04:27:41.167Z,59.09
2022-11-05T04:30:25.940Z,59.34
2022-11-05T04:33:10.984Z,60.58
2022-11-05T04:35:56.041Z,61.06
2022-11-05T04:38:40.852Z,60.20
2022-11-05T04:41:25.675Z,60.75
2022-11-05T04:44:10.405Z,58.87
2022-11-05T04:46:55.343Z,58.00
2022-11-05T04:49:40.134Z,58.25
2022-11-05T04:52:24.856Z,59.16
2022-11-05T04:55:09.475Z,60.29
2022-11-05T04:57:54.304Z,61.18
2022-11-05T05:00:39.050Z,60.67
2022-11-05T05:03:23.932Z,59.00
2022-11-05T05:06:08.699Z,59.26
2022-11-05T05:08:53.468Z,60.10
2022-11-05T05:11:38.201Z,59.44
2022-11-05T05:14:22.826Z,59.83
2022-11-05T05:17:07.782Z,59.69
2022-11-05T05:19:52.635Z,59.53
2022-11-05T05:22:37.532Z,58.66
2022-11-05T05:25:22.136Z,58.46
2022-11-05T05:28:06.920Z,57.67
2022-11-05T05:30:56.141Z,59.53
2022-11-05T05:33:43.368Z,60.74
2022-11-05T05:36:28.105Z,60.67
2022-11-05T05:39:12.869Z,59.74
2022-11-05T05:41:57.601Z,61.07
2022-11-05T05:44:42.486Z,60.81
2022-11-05T05:47:27.295Z,60.68
2022-11-05T05:50:12.145Z,60.83
2022-11-05T05:52:56.826Z,61.37
2022-11-05T05:55:41.563Z,61.16
2022-11-05T05:58:26.328Z,61.33
2022-11-05T06:01:15.562Z,61.81
2022-11-05T06:04:03.432Z,61.70
2022-11-05T06:06:48.118Z,60.88
2022-11-05T06:09:32.984Z,60.66
2022-11-05T06:12:17.672Z,61.47
2022-11-05T06:15:02.355Z,61.88
2022-11-05T06:17:47.212Z,62.21
2022-11-05T06:20:31.961Z,60.57
2022-11-05T06:23:16.627Z,60.07
2022-11-05T06:26:01.288Z,59.30
2022-11-05T06:28:45.995Z,58.59
2022-11-05T06:31:30.747Z,58.90
2022-11-05T06:34:15.524Z,57.71
2022-11-05T06:37:00.247Z,55.73
2022-11-05T06:39:44.892Z,55.44
2022-11-05T06:42:29.577Z,54.79
2022-11-05T06:45:14.373Z,54.54
2022-11-05T06:47:59.062Z,54.57
2022-11-05T06:50:43.784Z,54.66
2022-11-05T06:53:28.644Z,54.46
2022-11-05T06:56:13.378Z,54.91
2022-11-05T06:58:58.223Z,55.67
2022-11-05T07:01:43.100Z,56.75
2022-11-05T07:04:28.413Z,57.50
2022-11-05T07:07:13.204Z,57.63
2022-11-05T07:09:57.949Z,58.64
2022-11-05T07:12:42.646Z,59.05
2022-11-05T07:15:27.335Z,59.19
2022-11-05T07:18:11.999Z,59.62
2022-11-05T07:20:56.705Z,59.61
2022-11-05T07:23:41.585Z,60.13
2022-11-05T07:26:30.473Z,60.32
2022-11-05T07:29:18.088Z,61.31
2022-11-05T07:32:02.979Z,60.16
2022-11-05T07:34:47.648Z,59.95
2022-11-05T07:37:32.494Z,59.12
2022-11-05T07:40:17.188Z,58.98
2022-11-05T07:43:01.935Z,58.83
2022-11-05T07:45:46.618Z,59.46
2022-11-05T07:48:31.421Z,59.65
2022-11-05T07:51:16.053Z,58.15
2022-11-05T07:54:00.867Z,57.07
2022-11-05T07:56:45.579Z,56.77
2022-11-05T07:59:30.426Z,57.20
2022-11-05T08:02:15.357Z,59.35
2022-11-05T08:05:00.439Z,59.01
2022-11-05T08:07:45.216Z,57.46
2022-11-05T08:10:29.932Z,56.53
2022-11-05T08:13:14.847Z,58.11
2022-11-05T08:15:59.993Z,59.76
2022-11-05T08:18:44.751Z,60.71
2022-11-05T08:21:29.678Z,62.25
2022-11-05T08:24:14.525Z,61.80
2022-11-05T08:26:59.268Z,63.90
2022-11-05T08:29:44.017Z,62.79
2022-11-05T08:32:28.739Z,63.21
2022-11-05T08:35:13.411Z,63.09
2022-11-05T08:37:58.267Z,62.89
2022-11-05T08:40:42.890Z,62.50
2022-11-05T08:43:27.690Z,62.00
2022-11-05T08:46:12.515Z,61.47
2022-11-05T08:48:57.252Z,60.58
2022-11-05T08:51:41.905Z,59.54
2022-11-05T08:54:26.627Z,58.21
2022-11-05T08:57:11.444Z,60.22
2022-11-05T08:59:56.093Z,59.43
2022-11-05T09:02:41.000Z,60.66
2022-11-05T09:05:26.088Z,59.17
2022-11-05T09:08:10.858Z,59.27
2022-11-05T09:10:55.559Z,59.60
2022-11-05T09:13:40.405Z,60.44
2022-11-05T09:16:25.199Z,61.12
2022-11-05T09:19:09.938Z,61.76
2022-11-05T09:21:54.696Z,61.81
2022-11-05T09:24:39.327Z,60.54
2022-11-05T09:27:24.162Z,59.60
2022-11-05T09:30:08.889Z,62.63
2022-11-05T09:32:53.733Z,64.22
2022-11-05T09:35:38.387Z,63.33
2022-11-05T09:38:23.051Z,64.64
2022-11-05T09:41:07.771Z,64.16
2022-11-05T09:43:52.689Z,63.07
2022-11-05T09:46:37.894Z,61.33
2022-11-05T09:49:22.662Z,61.19
2022-11-05T09:52:07.515Z,60.32
2022-11-05T09:54:52.245Z,57.48
2022-11-05T09:57:37.005Z,58.30
2022-11-05T10:00:22.197Z,58.35
2022-11-05T10:03:07.466Z,56.27
2022-11-05T10:05:52.241Z,57.66
2022-11-05T10:08:36.923Z,56.53
2022-11-05T10:11:21.736Z,54.30
2022-11-05T10:14:06.519Z,54.03
2022-11-05T10:16:51.365Z,55.57
2022-11-05T10:19:36.205Z,54.36
2022-11-05T10:22:20.937Z,53.17
2022-11-05T10:25:05.586Z,53.91
2022-11-05T10:27:50.411Z,53.78
2022-11-05T10:30:35.124Z,53.46
2022-11-05T10:33:19.862Z,53.03
2022-11-05T10:36:04.681Z,52.53
2022-11-05T10:38:49.423Z,53.46
2022-11-05T10:41:34.054Z,53.45
2022-11-05T10:44:19.186Z,55.47
2022-11-05T10:47:04.146Z,55.33
2022-11-05T10:49:48.865Z,55.65
2022-11-05T10:52:33.734Z,55.90
2022-11-05T10:55:18.495Z,55.14
2022-11-05T10:58:03.180Z,54.92
2022-11-05T11:00:48.158Z,55.33
2022-11-05T11:03:33.400Z,55.27
2022-11-05T11:06:18.233Z,57.03
2022-11-05T11:09:03.204Z,57.80
2022-11-05T11:11:48.449Z,57.66
2022-11-05T11:14:33.084Z,58.92
2022-11-05T11:17:17.993Z,58.38
2022-11-05T11:20:02.732Z,57.58
2022-11-05T11:22:47.431Z,57.78
2022-11-05T11:25:32.140Z,59.26
2022-11-05T11:28:16.876Z,58.61
2022-11-05T11:31:01.683Z,58.59
2022-11-05T11:33:46.598Z,57.42
2022-11-05T11:36:31.265Z,57.32
2022-11-05T11:39:15.956Z,56.52
2022-11-05T11:42:00.716Z,56.11
2022-11-05T11:44:45.552Z,55.43
2022-11-05T11:47:30.468Z,57.60
2022-11-05T11:50:15.356Z,57.07
2022-11-05T11:52:59.994Z,55.78
2022-11-05T11:55:44.601Z,57.54
2022-11-05T11:58:29.299Z,58.93
2022-11-05T12:01:14.036Z,58.68
2022-11-05T12:03:58.734Z,60.29
2022-11-05T12:06:43.300Z,56.90
2022-11-05T12:09:28.046Z,59.29
2022-11-05T12:12:12.895Z,60.27
2022-11-05T12:14:57.463Z,52.07
2022-11-05T12:17:42.216Z,50.94
2022-11-05T12:20:27.043Z,50.97
2022-11-05T12:23:12.295Z,55.48
2022-11-05T12:25:57.215Z,54.15
2022-11-05T12:29:04.485Z,54.98
2022-11-05T12:31:47.069Z,54.16
2022-11-05T12:34:31.838Z,53.04
2022-11-05T12:37:16.656Z,51.60
2022-11-05T12:40:01.356Z,51.14
2022-11-05T12:42:46.166Z,50.26
2022-11-05T12:45:30.960Z,50.73
2022-11-05T12:48:16.239Z,50.50
2022-11-05T12:51:00.999Z,51.22
2022-11-05T12:53:45.692Z,51.87
2022-11-05T12:56:30.439Z,51.05
2022-11-05T12:59:15.128Z,50.33
2022-11-05T13:02:00.040Z,49.96
2022-11-05T13:04:45.243Z,51.50
2022-11-05T13:07:30.057Z,50.15
2022-11-05T13:10:14.809Z,51.94
2022-11-05T13:12:59.589Z,50.17
2022-11-05T13:15:44.413Z,49.78
2022-11-05T13:18:29.205Z,48.12
2022-11-05T13:21:13.878Z,47.14
2022-11-05T13:23:58.482Z,47.46
2022-11-05T13:26:43.417Z,48.31
2022-11-05T13:29:28.038Z,50.12
2022-11-05T13:32:13.405Z,50.46
2022-11-05T13:34:58.022Z,49.37
2022-11-05T13:37:42.747Z,50.49
2022-11-05T13:40:27.474Z,49.19
2022-11-05T13:43:12.401Z,48.80
2022-11-05T13:46:02.805Z,49.11
2022-11-05T13:48:50.181Z,49.90
2022-11-05T13:51:39.117Z,48.17
2022-11-05T13:54:24.323Z,48.70
2022-11-05T13:57:09.099Z,48.94
2022-11-05T13:59:53.967Z,48.71
2022-11-05T14:02:38.844Z,49.37
2022-11-05T14:05:23.499Z,48.59
2022-11-05T14:08:08.221Z,49.40
2022-11-05T14:10:52.979Z,49.08
2022-11-05T14:13:37.815Z,49.63
2022-11-05T14:16:22.586Z,49.95
2022-11-05T14:19:07.417Z,50.37
2022-11-05T14:21:52.167Z,51.40
2022-11-05T14:24:37.085Z,51.97
2022-11-05T14:27:21.942Z,51.31
2022-11-05T14:30:06.740Z,51.52
2022-11-05T14:32:51.760Z,51.74
2022-11-05T14:35:36.431Z,52.08
2022-11-05T14:38:21.342Z,51.95
2022-11-05T14:41:06.599Z,52.69
2022-11-05T14:43:51.446Z,51.55
2022-11-05T14:46:36.281Z,51.65
2022-11-05T14:49:21.308Z,51.13
2022-11-05T14:52:06.573Z,51.74
2022-11-05T14:54:51.260Z,52.44
2022-11-05T14:57:36.214Z,52.78
2022-11-05T15:00:20.959Z,54.59
2022-11-05T15:03:05.788Z,52.89
2022-11-05T15:05:50.580Z,52.65
2022-11-05T15:08:35.269Z,54.00
2022-11-05T15:11:19.944Z,54.59
2022-11-05T15:14:04.815Z,54.25
2022-11-05T15:16:49.681Z,54.62
2022-11-05T15:19:34.317Z,54.84
2022-11-05T15:22:19.024Z,54.63
2022-11-05T15:25:03.817Z,54.21
2022-11-05T15:27:48.686Z,54.23
2022-11-05T15:30:33.346Z,53.81
2022-11-05T15:33:18.245Z,53.70
2022-11-05T15:36:02.863Z,53.70
2022-11-05T15:39:08.208Z,53.96
2022-11-05T15:41:52.437Z,52.46
2022-11-05T15:44:37.162Z,52.19
2022-11-05T15:47:21.898Z,51.51
2022-11-05T15:50:13.096Z,51.35
2022-11-05T15:53:20.637Z,52.82
2022-11-05T15:56:04.289Z,51.57
2022-11-05T15:58:49.027Z,51.65
2022-11-05T16:01:33.854Z,51.73
2022-11-05T16:04:19.125Z,51.76
2022-11-05T16:07:03.779Z,51.97
2022-11-05T16:09:48.413Z,52.69
2022-11-05T16:12:33.193Z,52.26
2022-11-05T16:15:17.970Z,51.94
2022-11-05T16:18:02.818Z,53.17
2022-11-05T16:20:47.410Z,53.07
2022-11-05T16:23:32.285Z,53.27
2022-11-05T16:26:29.758Z,52.28
2022-11-05T16:29:22.102Z,52.20
2022-11-05T16:32:07.014Z,52.21
2022-11-05T16:34:52.024Z,52.34
2022-11-05T16:37:36.767Z,52.55
2022-11-05T16:40:21.383Z,52.67
2022-11-05T16:43:06.255Z,53.20
2022-11-05T16:45:50.903Z,53.35
2022-11-05T16:48:35.569Z,53.05
2022-11-05T16:51:26.271Z,53.49
2022-11-05T16:54:12.455Z,54.54
2022-11-05T16:56:57.358Z,55.04
2022-11-05T16:59:42.106Z,55.61
2022-11-05T17:02:26.955Z,55.48
2022-11-05T17:05:12.272Z,55.30
2022-11-05T17:07:56.906Z,55.84
2022-11-05T17:10:41.594Z,56.19
2022-11-05T17:13:26.340Z,56.12
2022-11-05T17:16:11.012Z,56.07
2022-11-05T17:18:55.687Z,56.07
2022-11-05T17:21:40.543Z,55.71
2022-11-05T17:24:25.299Z,55.24
2022-11-05T17:27:10.141Z,56.00
2022-11-05T17:29:54.978Z,56.22
2022-11-05T17:32:39.908Z,55.73
2022-11-05T17:35:24.660Z,55.52
2022-11-05T17:38:09.467Z,55.49
2022-11-05T17:40:54.246Z,56.10
2022-11-05T17:43:38.946Z,56.05
2022-11-05T17:46:23.670Z,55.71
2022-11-05T17:49:08.415Z,55.98
2022-11-05T17:51:53.210Z,56.15
2022-11-05T17:54:37.884Z,55.86
2022-11-05T17:57:22.811Z,55.74
2022-11-05T18:00:07.504Z,56.47
2022-11-05T18:02:52.192Z,56.26
2022-11-05T18:05:37.084Z,56.16
2022-11-05T18:08:22.332Z,56.02
2022-11-05T18:11:07.088Z,56.67
2022-11-05T18:13:51.819Z,56.81
2022-11-05T18:16:36.659Z,57.42
2022-11-05T18:19:21.395Z,57.54
2022-11-05T18:22:06.204Z,57.74
2022-11-05T18:24:51.038Z,58.71
2022-11-05T18:27:35.994Z,57.66
2022-11-05T18:30:20.998Z,57.25
2022-11-05T18:33:05.803Z,56.37
2022-11-05T18:35:51.084Z,56.73
2022-11-05T18:38:35.904Z,56.71
2022-11-05T18:41:21.215Z,56.39
2022-11-05T18:44:06.051Z,56.26
2022-11-05T18:46:58.191Z,55.37
2022-11-05T18:49:43.723Z,55.66
2022-11-05T18:52:28.615Z,56.05
2022-11-05T18:55:13.334Z,55.61
2022-11-05T18:57:58.107Z,56.42
2022-11-05T19:00:42.702Z,56.96
2022-11-05T19:03:27.503Z,56.62
2022-11-05T19:06:12.165Z,55.77
2022-11-05T19:08:57.508Z,56.59
2022-11-05T19:11:42.183Z,57.14
2022-11-05T19:14:26.935Z,56.78
2022-11-05T19:17:11.833Z,57.10
2022-11-05T19:19:56.583Z,56.48
2022-11-05T19:22:41.382Z,56.71
2022-11-05T19:25:26.090Z,57.48
2022-11-05T19:28:11.058Z,58.27
2022-11-05T19:30:56.115Z,57.79
2022-11-05T19:33:41.000Z,57.90
2022-11-05T19:36:26.036Z,58.46
2022-11-05T19:39:11.078Z,57.91
2022-11-05T19:42:01.986Z,58.47
2022-11-05T19:44:48.701Z,57.79
2022-11-05T19:47:33.472Z,58.17
2022-11-05T19:50:19.343Z,58.13
2022-11-05T19:53:04.890Z,57.95
2022-11-05T19:55:49.709Z,58.10
2022-11-05T19:58:34.417Z,58.30
2022-11-05T20:01:19.240Z,58.21
2022-11-05T20:04:04.294Z,58.44
2022-11-05T20:06:49.031Z,58.11
2022-11-05T20:09:33.755Z,58.32
2022-11-05T20:12:18.527Z,57.74
2022-11-05T20:15:03.306Z,57.45
2022-11-05T20:17:48.026Z,58.22
2022-11-05T20:20:32.868Z,58.45
2022-11-05T20:23:17.676Z,59.07
2022-11-05T20:26:02.467Z,58.33
2022-11-05T20:28:47.230Z,57.88
2022-11-05T20:31:32.178Z,57.28
2022-11-05T20:34:16.906Z,56.94
2022-11-05T20:37:01.625Z,57.05
2022-11-05T20:39:46.250Z,56.90
2022-11-05T20:42:30.985Z,56.32
2022-11-05T20:45:15.722Z,56.63
2022-11-05T20:48:00.354Z,57.44
2022-11-05T20:50:45.129Z,58.13
2022-11-05T20:53:29.848Z,59.00
2022-11-05T20:56:14.636Z,60.59
2022-11-05T20:58:59.476Z,60.94
2022-11-05T21:01:44.328Z,61.16
2022-11-05T21:04:29.439Z,60.71
2022-11-05T21:07:14.172Z,61.80
2022-11-05T21:09:59.009Z,61.10
2022-11-05T21:12:43.704Z,60.65
2022-11-05T21:15:28.470Z,60.79
2022-11-05T21:18:13.460Z,60.55
2022-11-05T21:20:58.564Z,60.56
2022-11-05T21:23:43.347Z,60.34
2022-11-05T21:26:28.243Z,59.68
2022-11-05T21:29:12.895Z,59.86
2022-11-05T21:31:57.651Z,59.80
2022-11-05T21:34:42.349Z,59.70
2022-11-05T21:37:27.286Z,60.78
2022-11-05T21:40:12.026Z,60.33
2022-11-05T21:42:56.642Z,60.10
2022-11-05T21:45:41.280Z,60.33
2022-11-05T21:48:26.066Z,59.87
2022-11-05T21:51:11.009Z,60.12
2022-11-05T21:53:55.739Z,59.97
2022-11-05T21:56:40.522Z,59.69
2022-11-05T21:59:25.347Z,59.90
2022-11-05T22:02:10.159Z,60.91
2022-11-05T22:04:55.379Z,60.08
2022-11-05T22:07:40.186Z,60.81
2022-11-05T22:10:25.067Z,61.82
2022-11-05T22:13:09.808Z,61.59
2022-11-05T22:15:54.743Z,60.71
2022-11-05T22:18:39.407Z,61.17
2022-11-05T22:21:24.326Z,60.49
2022-11-05T22:24:09.092Z,60.40
2022-11-05T22:26:53.878Z,59.63
2022-11-05T22:29:38.572Z,60.10
2022-11-05T22:32:23.333Z,60.03
2022-11-05T22:35:07.999Z,59.47
2022-11-05T22:37:52.759Z,60.51
2022-11-05T22:40:37.670Z,59.83
2022-11-05T22:43:22.553Z,60.54
2022-11-05T22:46:07.292Z,59.82
2022-11-05T22:48:52.133Z,59.82
2022-11-05T22:51:37.004Z,59.69
2022-11-05T22:54:21.658Z,59.70
2022-11-05T22:57:06.503Z,59.50
2022-11-05T22:59:51.337Z,58.73
2022-11-05T23:02:36.163Z,58.30
2022-11-05T23:05:21.344Z,58.36
2022-11-05T23:08:06.075Z,58.17
2022-11-05T23:10:50.892Z,58.38
2022-11-05T23:13:35.570Z,58.70
2022-11-05T23:16:20.367Z,58.27
2022-11-05T23:19:05.012Z,58.51
2022-11-05T23:21:50.035Z,58.18
2022-11-05T23:24:34.799Z,58.25
2022-11-05T23:27:19.680Z,58.97
2022-11-05T23:30:04.647Z,59.95
2022-11-05T23:32:49.404Z,61.38
2022-11-05T23:35:34.303Z,60.62
2022-11-05T23:38:19.075Z,59.95
2022-11-05T23:41:03.920Z,60.16
2022-11-05T23:43:48.622Z,59.67
2022-11-05T23:46:33.396Z,60.62
2022-11-05T23:49:18.129Z,60.31
2022-11-05T23:52:02.788Z,60.86
2022-11-05T23:54:47.537Z,61.18
2022-11-05T23:57:32.316Z,61.44
